Time;durP1;ratioP1;P1;durP2;ratioP2;P2;SDS_P1;SDS_P2;PMS_P1;PMS_P2;Temp;Humidity;BMP_temperature;BMP_pressure;BME280_temperature;BME280_humidity;BME280_pressure;Samples;Min_cycle;Max_cycle;Signal;HPM_P1;HPM_P2
2023/12/28 00:01:27;;;;;;;8.10;4.40;;;;;;;;;;6111099;23;20025;-87
2023/12/28 00:03:53;;;;;;;6.80;4.25;;;;;;;;;;6135089;23;20017;-87
2023/12/28 00:06:23;;;;;;;8.98;4.45;;;;;;;;;;6134748;23;20025;-87
2023/12/28 00:08:53;;;;;;;9.88;3.92;;;;;;;;;;6134799;23;20060;-87
2023/12/28 00:11:23;;;;;;;11.85;4.20;;;;;;;;;;6134559;23;20439;-87
2023/12/28 00:13:55;;;;;;;;;;;;;;;;;;6113232;23;20045;-87
2023/12/28 00:16:21;;;;;;;11.65;4.30;;;;;;;;;;6134643;23;19991;-87
2023/12/28 00:18:47;;;;;;;13.75;4.13;;;;;;;;;;6135558;23;20021;-87
2023/12/28 00:21:14;;;;;;;17.52;4.32;;;;;;;;;;6134220;23;20021;-87
2023/12/28 00:23:42;;;;;;;17.83;4.70;;;;;;;;;;6134790;23;20024;-87
2023/12/28 00:26:08;;;;;;;15.88;4.80;;;;;;;;;;6134579;23;20096;-87
2023/12/28 00:28:36;;;;;;;11.95;4.15;;;;;;;;;;6135171;23;20025;-87
2023/12/28 00:31:03;;;;;;;13.13;4.03;;;;;;;;;;6134519;23;20032;-87
2023/12/28 00:33:33;;;;;;;16.27;4.45;;;;;;;;;;6094081;23;20583;-87
2023/12/28 00:35:59;;;;;;;19.13;4.63;;;;;;;;;;6045679;23;20023;-87
2023/12/28 00:38:27;;;;;;;17.33;4.82;;;;;;;;;;6045679;23;20521;-87
2023/12/28 00:40:56;;;;;;;17.15;4.32;;;;;;;;;;6070870;23;20022;-87
2023/12/28 00:43:22;;;;;;;15.88;4.68;;;;;;;;;;6070337;23;20032;-87
2023/12/28 00:45:54;;;;;;;12.35;4.35;;;;;;;;;;6069813;23;20129;-87
2023/12/28 00:48:20;;;;;;;14.73;4.50;;;;;;;;;;6070164;23;20452;-87
2023/12/28 00:50:47;;;;;;;18.08;5.22;;;;;;;;;;6069314;23;20068;-87
2023/12/28 00:53:15;;;;;;;13.15;5.10;;;;;;;;;;6070313;23;20103;-86
2023/12/28 00:55:42;;;;;;;21.58;4.78;;;;;;;;;;6069937;23;20296;-88
2023/12/28 00:58:11;;;;;;;20.05;4.80;;;;;;;;;;6069972;23;20097;-87
2023/12/28 01:00:40;;;;;;;17.90;4.72;;;;;;;;;;6070022;23;20034;-87
2023/12/28 01:03:06;;;;;;;17.08;4.00;;;;;;;;;;6069966;23;20463;-87
2023/12/28 01:05:38;;;;;;;21.35;5.03;;;;;;;;;;6156308;23;20023;-87
2023/12/28 01:08:06;;;;;;;14.38;3.92;;;;;;;;;;6134572;23;20036;-87
2023/12/28 01:10:33;;;;;;;22.60;5.07;;;;;;;;;;6134586;23;20025;-87
2023/12/28 01:13:08;;;;;;;13.80;3.65;;;;;;;;;;6110268;23;20071;-87
2023/12/28 01:15:34;;;;;;;19.60;4.37;;;;;;;;;;6134530;23;20029;-86
2023/12/28 01:18:08;;;;;;;15.13;4.18;;;;;;;;;;6134466;23;20365;-86
2023/12/28 01:20:34;;;;;;;20.60;4.43;;;;;;;;;;6134382;23;20025;-87
2023/12/28 01:23:06;;;;;;;21.10;4.38;;;;;;;;;;6134179;23;20358;-87
2023/12/28 01:25:35;;;;;;;17.20;4.43;;;;;;;;;;6135119;23;20112;-87
2023/12/28 01:28:01;;;;;;;21.80;5.53;;;;;;;;;;6134285;23;20048;-87
2023/12/28 01:30:30;;;;;;;18.50;5.32;;;;;;;;;;6158754;23;20028;-87
2023/12/28 01:32:56;;;;;;;21.05;5.35;;;;;;;;;;6132623;23;20071;-87
2023/12/28 01:35:23;;;;;;;17.38;5.00;;;;;;;;;;6133941;23;20025;-87
2023/12/28 01:37:49;;;;;;;20.42;4.78;;;;;;;;;;6134816;23;20082;-87
2023/12/28 01:40:17;;;;;;;21.80;4.60;;;;;;;;;;6135318;23;20131;-87
2023/12/28 01:42:49;;;;;;;17.20;3.90;;;;;;;;;;6134962;23;20342;-85
2023/12/28 01:45:15;;;;;;;24.15;5.72;;;;;;;;;;6134520;23;20100;-87
2023/12/28 01:47:49;;;;;;;15.57;3.75;;;;;;;;;;6159456;23;20025;-86
2023/12/28 01:50:16;;;;;;;19.27;4.60;;;;;;;;;;6155705;23;20033;-87
2023/12/28 01:52:45;;;;;;;19.20;4.80;;;;;;;;;;6134370;23;20060;-87
2023/12/28 01:55:13;;;;;;;21.08;4.50;;;;;;;;;;6134248;23;20168;-87
2023/12/28 01:57:39;;;;;;;25.73;5.75;;;;;;;;;;6134415;23;20036;-86
2023/12/28 02:00:09;;;;;;;24.17;4.80;;;;;;;;;;6134668;23;20025;-86
2023/12/28 02:02:37;;;;;;;20.73;4.70;;;;;;;;;;6134257;23;20055;-87
2023/12/28 02:05:04;;;;;;;22.85;5.22;;;;;;;;;;6133806;23;20018;-86
2023/12/28 02:07:30;;;;;;;14.77;4.40;;;;;;;;;;6133998;23;20056;-87
2023/12/28 02:10:01;;;;;;;22.95;5.00;;;;;;;;;;6133832;23;20021;-86
2023/12/28 02:12:27;;;;;;;21.92;5.13;;;;;;;;;;6133694;23;20021;-87
2023/12/28 02:14:54;;;;;;;16.98;4.68;;;;;;;;;;6133922;23;20021;-86
2023/12/28 02:17:26;;;;;;;23.17;5.20;;;;;;;;;;6134233;23;20025;-87
2023/12/28 02:19:56;;;;;;;24.40;4.85;;;;;;;;;;6158542;23;20025;-86
2023/12/28 02:22:26;;;;;;;21.10;4.50;;;;;;;;;;6134552;23;20032;-87
2023/12/28 02:24:58;;;;;;;18.48;5.43;;;;;;;;;;6133638;23;20272;-87
2023/12/28 02:27:26;;;;;;;20.30;4.45;;;;;;;;;;6133872;23;20029;-86
2023/12/28 02:29:52;;;;;;;21.63;4.15;;;;;;;;;;6133980;23;20058;-86
2023/12/28 02:32:37;;;;;;;19.08;5.65;;;;;;;;;;6134823;23;20025;-86
2023/12/28 02:35:22;;;;;;;16.80;4.30;;;;;;;;;;6109084;23;20361;-87
2023/12/28 02:37:54;;;;;;;16.13;4.68;;;;;;;;;;6134173;23;20021;-87
2023/12/28 02:40:21;;;;;;;22.88;4.00;;;;;;;;;;6133142;23;20048;-86
2023/12/28 02:42:48;;;;;;;23.15;4.68;;;;;;;;;;6133507;23;20021;-87
2023/12/28 02:45:17;;;;;;;17.52;4.72;;;;;;;;;;6156241;23;20017;-87
2023/12/28 02:47:44;;;;;;;14.43;3.85;;;;;;;;;;6133971;23;20024;-86
2023/12/28 02:50:10;;;;;;;14.60;4.18;;;;;;;;;;6133698;23;20021;-87
2023/12/28 02:52:37;;;;;;;17.83;4.20;;;;;;;;;;6133459;23;20457;-86
2023/12/28 02:55:04;;;;;;;17.45;4.65;;;;;;;;;;6133937;23;20025;-87
2023/12/28 02:57:31;;;;;;;18.67;4.25;;;;;;;;;;6132198;23;20021;-86
2023/12/28 03:00:01;;;;;;;13.57;3.88;;;;;;;;;;6157807;23;20052;-87
2023/12/28 03:02:28;;;;;;;14.18;4.00;;;;;;;;;;6133344;23;20038;-87
2023/12/28 03:05:15;;;;;;;16.70;4.70;;;;;;;;;;6163702;23;20025;-87
2023/12/28 03:07:47;;;;;;;18.77;4.15;;;;;;;;;;6112097;23;20346;-86
2023/12/28 03:10:17;;;;;;;15.48;3.63;;;;;;;;;;6135860;23;20047;-87
2023/12/28 03:12:44;;;;;;;16.27;3.95;;;;;;;;;;6160205;23;20040;-86
2023/12/28 03:15:24;;;;;;;15.75;3.67;;;;;;;;;;6162520;23;20020;-86
2023/12/28 03:17:50;;;;;;;15.88;4.10;;;;;;;;;;6159505;23;20052;-86
2023/12/28 03:20:19;;;;;;;17.25;3.70;;;;;;;;;;6159922;23;20021;-86
2023/12/28 03:22:48;;;;;;;16.70;3.90;;;;;;;;;;6135422;23;20063;-87
2023/12/28 03:25:29;;;;;;;14.73;3.72;;;;;;;;;;6159647;23;20021;-86
2023/12/28 03:27:55;;;;;;;26.23;5.70;;;;;;;;;;6136198;23;20382;-87
2023/12/28 03:30:25;;;;;;;12.75;3.40;;;;;;;;;;6135672;23;20584;-86
2023/12/28 03:32:56;;;;;;;18.92;3.85;;;;;;;;;;6135736;23;20028;-86
2023/12/28 03:35:24;;;;;;;12.43;3.78;;;;;;;;;;6159511;23;20061;-87
2023/12/28 03:37:55;;;;;;;13.55;3.20;;;;;;;;;;6158509;23;20021;-86
2023/12/28 03:40:24;;;;;;;14.07;4.03;;;;;;;;;;6135496;23;20104;-87
2023/12/28 03:43:08;;;;;;;13.65;3.58;;;;;;;;;;6162070;23;20018;-87
2023/12/28 03:45:34;;;;;;;17.35;4.20;;;;;;;;;;6134913;23;20020;-86
2023/12/28 03:48:07;;;;;;;16.92;3.60;;;;;;;;;;6135295;23;20028;-87
2023/12/28 03:50:36;;;;;;;19.42;4.40;;;;;;;;;;6159405;23;20075;-87
2023/12/28 03:53:05;;;;;;;13.57;3.70;;;;;;;;;;6135408;23;20017;-87
2023/12/28 03:55:36;;;;;;;16.70;3.20;;;;;;;;;;6135265;23;20028;-87
2023/12/28 03:58:06;;;;;;;14.13;3.65;;;;;;;;;;6159138;23;20017;-87
2023/12/28 04:00:34;;;;;;;15.82;4.07;;;;;;;;;;6134531;23;20104;-87
2023/12/28 04:03:03;;;;;;;15.13;4.20;;;;;;;;;;6136670;23;20032;-87
2023/12/28 04:05:29;;;;;;;22.13;4.20;;;;;;;;;;6134829;23;20323;-87
2023/12/28 04:07:55;;;;;;;18.65;3.53;;;;;;;;;;6135192;23;20458;-86
2023/12/28 04:10:31;;;;;;;19.98;4.22;;;;;;;;;;6134446;23;20346;-86
2023/12/28 04:12:58;;;;;;;14.35;3.72;;;;;;;;;;6134607;23;20025;-86
2023/12/28 04:15:28;;;;;;;14.68;4.05;;;;;;;;;;6135114;23;20119;-87
2023/12/28 04:17:54;;;;;;;13.98;3.40;;;;;;;;;;6133992;23;20028;-87
2023/12/28 04:20:28;;;;;;;20.17;3.47;;;;;;;;;;6160774;23;20055;-86
2023/12/28 04:22:55;;;;;;;13.93;3.72;;;;;;;;;;6134807;23;20054;-86
2023/12/28 04:25:21;;;;;;;15.10;4.03;;;;;;;;;;6134872;23;20021;-86
2023/12/28 04:27:50;;;;;;;13.00;3.88;;;;;;;;;;6134785;23;20021;-87
2023/12/28 04:30:18;;;;;;;19.40;3.97;;;;;;;;;;6134355;23;20021;-86
2023/12/28 04:32:44;;;;;;;14.75;3.95;;;;;;;;;;6134790;23;20506;-88
2023/12/28 04:35:23;;;;;;;15.93;3.85;;;;;;;;;;6134245;23;20984;-87
2023/12/28 04:37:52;;;;;;;10.55;3.22;;;;;;;;;;6134690;23;20458;-88
2023/12/28 04:40:21;;;;;;;13.48;4.03;;;;;;;;;;6159988;23;20509;-87
2023/12/28 04:42:47;;;;;;;18.23;4.43;;;;;;;;;;6134897;23;20039;-87
2023/12/28 04:45:14;;;;;;;15.75;4.65;;;;;;;;;;6134924;23;20093;-86
2023/12/28 04:47:40;;;;;;;20.77;4.03;;;;;;;;;;6134596;23;20021;-88
2023/12/28 04:50:08;;;;;;;17.25;3.97;;;;;;;;;;6154931;23;20021;-87
2023/12/28 04:52:34;;;;;;;18.67;3.50;;;;;;;;;;6134774;23;20021;-87
2023/12/28 04:55:00;;;;;;;16.55;5.65;;;;;;;;;;6135011;23;20076;-87
2023/12/28 04:57:28;;;;;;;19.40;4.45;;;;;;;;;;6110235;23;20024;-87
2023/12/28 04:59:57;;;;;;;17.65;3.75;;;;;;;;;;6134987;23;20099;-86
2023/12/28 05:02:25;;;;;;;15.30;4.05;;;;;;;;;;6134947;23;20029;-87
2023/12/28 05:04:52;;;;;;;18.30;4.00;;;;;;;;;;6133946;23;20032;-87
2023/12/28 05:07:18;;;;;;;20.17;4.63;;;;;;;;;;6134670;23;20353;-87
2023/12/28 05:09:44;;;;;;;18.88;4.57;;;;;;;;;;6134295;23;20104;-88
2023/12/28 05:12:15;;;;;;;19.23;4.28;;;;;;;;;;6134762;23;20362;-86
2023/12/28 05:14:46;;;;;;;18.08;5.10;;;;;;;;;;6134193;23;20047;-87
2023/12/28 05:17:12;;;;;;;14.98;3.83;;;;;;;;;;6158942;23;20032;-86
2023/12/28 05:19:38;;;;;;;18.52;4.18;;;;;;;;;;6134461;23;20056;-87
2023/12/28 05:22:06;;;;;;;18.30;4.57;;;;;;;;;;6134350;23;20023;-87
2023/12/28 05:24:34;;;;;;;20.48;4.85;;;;;;;;;;6157096;23;20021;-88
2023/12/28 05:27:03;;;;;;;24.45;5.13;;;;;;;;;;6159169;23;20052;-87
2023/12/28 05:29:35;;;;;;;17.58;4.45;;;;;;;;;;6134962;23;20024;-87
2023/12/28 05:32:04;;;;;;;25.38;5.25;;;;;;;;;;6134351;23;20103;-87
2023/12/28 05:34:38;;;;;;;20.33;4.80;;;;;;;;;;6133724;23;20350;-86
2023/12/28 05:37:06;;;;;;;;;;;;;;;;;;6134712;23;20017;-87
2023/12/28 05:39:36;;;;;;;17.85;4.65;;;;;;;;;;6134435;23;19916;-86
2023/12/28 05:42:02;;;;;;;25.45;5.45;;;;;;;;;;6134455;23;20021;-86
2023/12/28 05:44:31;;;;;;;21.77;5.18;;;;;;;;;;6135569;23;20021;-87
2023/12/28 05:46:57;;;;;;;20.40;5.13;;;;;;;;;;6133493;23;20032;-87
2023/12/28 05:49:28;;;;;;;15.70;4.13;;;;;;;;;;6134923;23;20032;-87
2023/12/28 05:51:54;;;;;;;23.10;4.35;;;;;;;;;;6134394;23;20079;-87
2023/12/28 05:54:30;;;;;;;19.75;4.63;;;;;;;;;;6134877;23;20423;-87
2023/12/28 05:57:04;;;;;;;17.88;4.82;;;;;;;;;;6134456;23;20021;-87
2023/12/28 05:59:33;;;;;;;18.92;4.80;;;;;;;;;;6134560;23;20100;-87
2023/12/28 06:02:03;;;;;;;18.33;5.00;;;;;;;;;;6135524;23;20155;-87
2023/12/28 06:04:29;;;;;;;21.52;4.85;;;;;;;;;;6133951;23;20032;-87
2023/12/28 06:06:55;;;;;;;18.27;4.53;;;;;;;;;;6134700;23;20035;-87
2023/12/28 06:09:21;;;;;;;18.70;4.93;;;;;;;;;;6134230;23;20155;-87
2023/12/28 06:11:53;;;;;;;21.88;5.13;;;;;;;;;;6135119;23;20110;-87
2023/12/28 06:14:22;;;;;;;18.73;5.53;;;;;;;;;;6159383;23;20060;-87
2023/12/28 06:16:51;;;;;;;22.30;4.80;;;;;;;;;;6157815;23;20048;-87
2023/12/28 06:19:18;;;;;;;25.77;5.70;;;;;;;;;;6134471;23;20017;-87
2023/12/28 06:21:45;;;;;;;21.27;4.65;;;;;;;;;;6109143;23;20355;-87
2023/12/28 06:24:17;;;;;;;20.17;5.07;;;;;;;;;;6133963;23;20107;-88
2023/12/28 06:26:46;;;;;;;24.92;5.25;;;;;;;;;;6134787;23;20064;-87
2023/12/28 06:29:12;;;;;;;17.75;4.68;;;;;;;;;;6134397;23;20504;-87
2023/12/28 06:31:41;;;;;;;16.38;4.57;;;;;;;;;;6159169;23;20092;-87
2023/12/28 06:34:08;;;;;;;20.95;5.28;;;;;;;;;;6134064;23;20017;-88
2023/12/28 06:36:35;;;;;;;19.13;4.93;;;;;;;;;;6134063;23;20493;-87
2023/12/28 06:39:05;;;;;;;20.23;4.57;;;;;;;;;;6187096;23;20093;-87
2023/12/28 06:41:37;;;;;;;22.77;5.15;;;;;;;;;;6136451;23;20021;-86
2023/12/28 06:44:06;;;;;;;23.02;4.35;;;;;;;;;;6136387;23;20075;-86
2023/12/28 06:46:32;;;;;;;26.15;5.45;;;;;;;;;;6135357;23;20067;-87
2023/12/28 06:48:58;;;;;;;19.08;4.82;;;;;;;;;;6135730;23;20385;-87
2023/12/28 06:51:26;;;;;;;20.77;4.90;;;;;;;;;;6136174;23;20397;-87
2023/12/28 06:53:52;;;;;;;22.88;5.05;;;;;;;;;;6135852;23;20024;-87
2023/12/28 06:56:21;;;;;;;26.17;5.10;;;;;;;;;;6136071;23;20021;-87
2023/12/28 06:58:47;;;;;;;24.13;5.75;;;;;;;;;;6135702;23;20017;-87
2023/12/28 07:01:14;;;;;;;31.88;6.10;;;;;;;;;;6135620;23;20032;-86
2023/12/28 07:03:40;;;;;;;25.77;6.00;;;;;;;;;;6135397;23;20422;-87
2023/12/28 07:06:07;;;;;;;22.75;6.47;;;;;;;;;;6136036;23;20022;-87
2023/12/28 07:08:33;;;;;;;23.98;5.90;;;;;;;;;;6136038;23;20033;-87
2023/12/28 07:10:59;;;;;;;26.27;6.20;;;;;;;;;;6135785;23;20017;-86
2023/12/28 07:13:25;;;;;;;27.63;5.07;;;;;;;;;;6135656;23;20100;-87
2023/12/28 07:15:55;;;;;;;25.48;5.70;;;;;;;;;;6135593;23;20029;-87
2023/12/28 07:18:24;;;;;;;22.80;5.57;;;;;;;;;;6135628;23;20036;-87
2023/12/28 07:20:50;;;;;;;22.40;5.72;;;;;;;;;;6134916;23;20025;-87
2023/12/28 07:23:17;;;;;;;30.17;5.90;;;;;;;;;;6135627;23;20024;-88
2023/12/28 07:25:44;;;;;;;25.60;5.72;;;;;;;;;;6136269;23;20025;-87
2023/12/28 07:28:10;;;;;;;29.65;5.90;;;;;;;;;;6135658;23;20024;-88
2023/12/28 07:30:37;;;;;;;26.50;5.88;;;;;;;;;;6135364;23;20029;-86
2023/12/28 07:33:03;;;;;;;28.70;6.22;;;;;;;;;;6135426;23;20032;-87
2023/12/28 07:35:32;;;;;;;31.60;5.60;;;;;;;;;;6125939;23;20021;-87
2023/12/28 07:37:58;;;;;;;26.27;5.47;;;;;;;;;;6106041;23;20064;-87
2023/12/28 07:40:25;;;;;;;25.10;5.18;;;;;;;;;;6105752;23;20025;-86
2023/12/28 07:42:51;;;;;;;26.08;6.43;;;;;;;;;;6105760;23;20018;-87
2023/12/28 07:45:22;;;;;;;25.77;6.63;;;;;;;;;;6105429;23;20070;-86
2023/12/28 07:47:49;;;;;;;25.80;5.43;;;;;;;;;;6105434;23;20018;-86
2023/12/28 07:50:15;;;;;;;27.30;6.50;;;;;;;;;;6105693;23;20350;-86
2023/12/28 07:52:45;;;;;;;29.38;7.15;;;;;;;;;;6105857;23;20018;-86
2023/12/28 07:55:12;;;;;;;28.45;6.78;;;;;;;;;;6105978;23;20071;-86
2023/12/28 07:57:38;;;;;;;28.25;6.38;;;;;;;;;;6104737;23;20018;-88
2023/12/28 08:00:23;;;;;;;;;;;;;;;;;;;;;
2023/12/28 08:02:56;;;;;;;30.77;6.65;;;;;;;;;;6129167;23;20390;-86
2023/12/28 08:05:25;;;;;;;28.27;5.88;;;;;;;;;;6105230;23;20028;-85
2023/12/28 08:07:51;;;;;;;31.60;7.07;;;;;;;;;;6105413;23;20025;-87
2023/12/28 08:10:17;;;;;;;30.38;6.57;;;;;;;;;;6105568;23;20017;-87
2023/12/28 08:12:58;;;;;;;37.47;6.80;;;;;;;;;;6106285;23;20118;-87
2023/12/28 08:15:31;;;;;;;31.88;6.75;;;;;;;;;;6105550;23;20026;-86
2023/12/28 08:17:58;;;;;;;33.47;6.78;;;;;;;;;;6106977;23;20022;-86
2023/12/28 08:20:44;;;;;;;35.33;6.50;;;;;;;;;;6105829;23;20026;-87
2023/12/28 08:23:14;;;;;;;28.15;6.53;;;;;;;;;;6105609;23;20041;-87
2023/12/28 08:25:45;;;;;;;37.65;8.55;;;;;;;;;;6106021;23;20060;-86
2023/12/28 08:28:11;;;;;;;38.90;8.52;;;;;;;;;;6105174;23;20021;-87
2023/12/28 08:30:46;;;;;;;29.15;7.45;;;;;;;;;;6107358;23;20332;-84
2023/12/28 08:33:18;;;;;;;33.80;7.05;;;;;;;;;;6105614;23;20024;-85
2023/12/28 08:35:56;;;;;;;31.25;6.22;;;;;;;;;;6118040;23;20032;-85
2023/12/28 08:38:22;;;;;;;31.58;7.35;;;;;;;;;;6134797;23;20021;-86
2023/12/28 08:40:51;;;;;;;29.25;6.63;;;;;;;;;;6135175;23;20073;-86
2023/12/28 08:43:17;;;;;;;33.05;7.65;;;;;;;;;;6134772;23;20025;-86
2023/12/28 08:45:45;;;;;;;30.67;7.22;;;;;;;;;;6134369;23;20052;-85
2023/12/28 08:48:11;;;;;;;30.83;7.53;;;;;;;;;;6134557;23;20025;-85
2023/12/28 08:50:38;;;;;;;29.55;6.55;;;;;;;;;;6134508;23;20021;-85
2023/12/28 08:53:04;;;;;;;32.03;7.47;;;;;;;;;;6134339;23;20044;-86
2023/12/28 08:55:30;;;;;;;29.45;7.13;;;;;;;;;;6134250;23;20129;-85
2023/12/28 08:57:56;;;;;;;30.00;6.78;;;;;;;;;;6133884;23;20020;-85
2023/12/28 09:00:22;;;;;;;31.23;6.63;;;;;;;;;;6133186;23;20017;-86
2023/12/28 09:02:52;;;;;;;29.95;6.75;;;;;;;;;;6133938;23;20057;-86
2023/12/28 09:05:19;;;;;;;33.30;7.53;;;;;;;;;;6134300;23;20021;-86
2023/12/28 09:07:45;;;;;;;37.10;7.85;;;;;;;;;;6134455;23;20053;-87
2023/12/28 09:10:11;;;;;;;38.30;8.55;;;;;;;;;;6134684;23;20024;-86
2023/12/28 09:12:38;;;;;;;40.22;8.50;;;;;;;;;;6134135;23;20477;-86
2023/12/28 09:15:07;;;;;;;33.10;6.75;;;;;;;;;;6134415;23;20076;-85
2023/12/28 09:17:34;;;;;;;33.05;7.30;;;;;;;;;;6134610;23;20021;-86
2023/12/28 09:20:01;;;;;;;33.65;7.45;;;;;;;;;;6134953;23;20457;-86
2023/12/28 09:22:27;;;;;;;29.88;7.55;;;;;;;;;;6134588;23;20323;-85
2023/12/28 09:24:59;;;;;;;34.40;7.07;;;;;;;;;;6134807;23;20032;-86
2023/12/28 09:27:25;;;;;;;28.42;7.22;;;;;;;;;;6134503;23;20028;-86
2023/12/28 09:29:51;;;;;;;26.92;6.55;;;;;;;;;;6134568;23;20032;-86
2023/12/28 09:32:20;;;;;;;38.88;8.88;;;;;;;;;;6134917;23;20017;-86
2023/12/28 09:34:47;;;;;;;29.02;6.90;;;;;;;;;;6134999;23;20068;-86
2023/12/28 09:37:13;;;;;;;34.15;6.95;;;;;;;;;;6131245;23;20342;-85
2023/12/28 09:39:41;;;;;;;30.77;6.53;;;;;;;;;;6135272;23;20017;-85
2023/12/28 09:42:10;;;;;;;31.95;7.75;;;;;;;;;;6133963;23;20032;-86
2023/12/28 09:44:39;;;;;;;34.03;6.60;;;;;;;;;;6134395;23;20434;-85
2023/12/28 09:47:06;;;;;;;25.67;5.20;;;;;;;;;;6134556;23;20025;-85
2023/12/28 09:49:33;;;;;;;29.98;5.95;;;;;;;;;;6135364;23;20338;-85
2023/12/28 09:52:00;;;;;;;21.77;5.32;;;;;;;;;;6134589;23;20021;-85
2023/12/28 09:54:29;;;;;;;26.10;7.05;;;;;;;;;;6134116;23;20021;-86
2023/12/28 09:56:55;;;;;;;27.73;6.00;;;;;;;;;;6133917;23;20017;-85
2023/12/28 09:59:22;;;;;;;28.90;6.40;;;;;;;;;;6134115;23;20033;-86
2023/12/28 10:01:50;;;;;;;30.20;6.95;;;;;;;;;;6134204;23;20021;-86
2023/12/28 10:04:17;;;;;;;27.38;6.68;;;;;;;;;;6134214;23;20025;-85
2023/12/28 10:06:46;;;;;;;34.55;7.55;;;;;;;;;;6134248;23;20454;-85
2023/12/28 10:09:12;;;;;;;30.67;5.78;;;;;;;;;;6134078;23;20341;-85
2023/12/28 10:11:38;;;;;;;26.08;6.28;;;;;;;;;;6135392;23;20024;-86
2023/12/28 10:14:04;;;;;;;27.80;5.85;;;;;;;;;;6136371;23;20028;-86
2023/12/28 10:16:30;;;;;;;29.27;6.15;;;;;;;;;;6136115;23;20017;-85
2023/12/28 10:18:59;;;;;;;27.33;5.63;;;;;;;;;;6136660;23;20049;-86
2023/12/28 10:21:26;;;;;;;29.60;6.45;;;;;;;;;;6135975;23;20018;-86
2023/12/28 10:23:52;;;;;;;27.13;6.30;;;;;;;;;;6136148;23;20335;-85
2023/12/28 10:26:21;;;;;;;27.25;5.88;;;;;;;;;;6135301;23;20079;-85
2023/12/28 10:28:48;;;;;;;27.70;5.65;;;;;;;;;;6135693;23;20025;-86
2023/12/28 10:31:15;;;;;;;27.10;5.15;;;;;;;;;;6136102;23;20067;-85
2023/12/28 10:33:41;;;;;;;21.73;6.00;;;;;;;;;;6136068;23;20021;-85
2023/12/28 10:36:08;;;;;;;25.33;4.70;;;;;;;;;;6135480;23;20020;-86
2023/12/28 10:38:38;;;;;;;25.63;6.68;;;;;;;;;;6135887;23;20360;-85
2023/12/28 10:41:06;;;;;;;24.30;6.07;;;;;;;;;;6135899;23;20021;-86
2023/12/28 10:43:37;;;;;;;33.13;6.72;;;;;;;;;;6135598;23;20079;-85
2023/12/28 10:46:06;;;;;;;24.27;5.85;;;;;;;;;;6135595;23;20017;-84
2023/12/28 10:48:35;;;;;;;29.38;6.57;;;;;;;;;;6135390;23;20023;-86
2023/12/28 10:51:03;;;;;;;31.35;6.22;;;;;;;;;;6135632;23;20025;-85
2023/12/28 10:53:39;;;;;;;25.92;6.78;;;;;;;;;;6135349;23;20043;-86
2023/12/28 10:56:17;;;;;;;25.40;5.45;;;;;;;;;;6135581;23;20327;-85
2023/12/28 10:58:51;;;;;;;24.35;5.07;;;;;;;;;;6136100;23;20028;-84
2023/12/28 11:01:22;;;;;;;28.05;6.43;;;;;;;;;;6136007;23;20021;-86
2023/12/28 11:03:53;;;;;;;26.38;6.70;;;;;;;;;;6136827;23;20447;-83
2023/12/28 11:06:22;;;;;;;27.75;5.95;;;;;;;;;;6136019;23;20128;-88
2023/12/28 11:08:53;;;;;;;27.42;5.85;;;;;;;;;;6136238;23;20029;-86
2023/12/28 11:11:20;;;;;;;31.13;6.15;;;;;;;;;;6136852;23;20157;-85
2023/12/28 11:13:47;;;;;;;28.25;6.07;;;;;;;;;;6162658;23;20021;-85
2023/12/28 11:16:14;;;;;;;20.70;6.13;;;;;;;;;;6136837;23;20350;-84
2023/12/28 11:18:41;;;;;;;25.27;6.05;;;;;;;;;;6161307;23;20028;-84
2023/12/28 11:21:07;;;;;;;27.80;6.50;;;;;;;;;;6136791;23;20017;-84
2023/12/28 11:23:33;;;;;;;26.88;6.60;;;;;;;;;;6136120;23;20017;-85
2023/12/28 11:25:59;;;;;;;28.33;6.63;;;;;;;;;;6135859;23;20021;-85
2023/12/28 11:28:26;;;;;;;25.30;5.38;;;;;;;;;;6136916;23;20082;-84
2023/12/28 11:30:53;;;;;;;26.33;5.57;;;;;;;;;;6135760;23;20028;-84
2023/12/28 11:33:19;;;;;;;26.02;5.82;;;;;;;;;;6161857;23;20060;-84
2023/12/28 11:35:47;;;;;;;24.38;5.32;;;;;;;;;;6136187;23;20029;-85
2023/12/28 11:38:18;;;;;;;27.13;6.20;;;;;;;;;;6135782;23;20340;-85
2023/12/28 11:40:48;;;;;;;24.75;6.15;;;;;;;;;;6136053;23;20088;-84
2023/12/28 11:43:21;;;;;;;21.52;5.95;;;;;;;;;;6136235;23;20021;-86
2023/12/28 11:45:51;;;;;;;28.90;6.38;;;;;;;;;;6135439;23;20076;-85
2023/12/28 11:48:28;;;;;;;24.33;5.13;;;;;;;;;;6135942;23;20055;-83
2023/12/28 11:50:59;;;;;;;26.80;5.85;;;;;;;;;;6135889;23;20104;-85
2023/12/28 11:53:25;;;;;;;23.85;6.05;;;;;;;;;;6135526;23;20021;-84
2023/12/28 11:56:01;;;;;;;28.25;6.43;;;;;;;;;;6135851;23;20394;-85
2023/12/28 11:58:28;;;;;;;22.10;5.57;;;;;;;;;;6135463;23;20017;-84
2023/12/28 12:00:57;;;;;;;27.88;5.97;;;;;;;;;;6136175;23;20419;-85
2023/12/28 12:03:26;;;;;;;31.50;5.88;;;;;;;;;;6135335;23;20076;-85
2023/12/28 12:05:54;;;;;;;25.40;5.63;;;;;;;;;;6135858;23;20025;-86
2023/12/28 12:08:20;;;;;;;35.60;7.25;;;;;;;;;;6135843;23;20032;-85
2023/12/28 12:10:46;;;;;;;29.20;6.07;;;;;;;;;;6160103;23;20021;-84
2023/12/28 12:13:14;;;;;;;25.20;5.97;;;;;;;;;;6135451;23;20024;-85
2023/12/28 12:15:40;;;;;;;28.88;7.65;;;;;;;;;;6135209;23;20025;-85
2023/12/28 12:18:06;;;;;;;32.63;6.90;;;;;;;;;;6135223;23;20076;-85
2023/12/28 12:20:33;;;;;;;24.05;6.13;;;;;;;;;;6136048;23;20024;-85
2023/12/28 12:22:59;;;;;;;26.33;6.35;;;;;;;;;;6159809;23;20020;-84
2023/12/28 12:25:26;;;;;;;23.95;6.60;;;;;;;;;;6135272;23;20520;-85
2023/12/28 12:27:52;;;;;;;26.55;5.80;;;;;;;;;;6134571;23;20354;-85
2023/12/28 12:30:19;;;;;;;29.10;6.57;;;;;;;;;;6135530;23;20024;-86
2023/12/28 12:32:46;;;;;;;38.05;8.10;;;;;;;;;;6134863;23;20327;-85
2023/12/28 12:35:14;;;;;;;24.95;6.25;;;;;;;;;;6159730;23;20025;-84
2023/12/28 12:37:41;;;;;;;29.67;7.13;;;;;;;;;;6135123;23;20029;-85
2023/12/28 12:40:08;;;;;;;38.38;7.32;;;;;;;;;;6159125;23;20021;-85
2023/12/28 12:42:34;;;;;;;28.85;6.95;;;;;;;;;;6134959;23;20071;-85
2023/12/28 12:45:00;;;;;;;27.88;6.57;;;;;;;;;;6135071;23;20041;-84
2023/12/28 12:47:32;;;;;;;20.77;5.70;;;;;;;;;;6134749;23;20016;-86
2023/12/28 12:50:01;;;;;;;28.58;6.55;;;;;;;;;;6134978;23;20087;-85
2023/12/28 12:52:28;;;;;;;25.70;6.35;;;;;;;;;;6134600;23;20017;-84
2023/12/28 12:54:57;;;;;;;26.20;5.80;;;;;;;;;;6159367;23;20095;-85
2023/12/28 12:57:26;;;;;;;35.88;7.40;;;;;;;;;;6134607;23;20031;-85
2023/12/28 12:59:52;;;;;;;28.75;5.47;;;;;;;;;;6134654;23;20311;-85
2023/12/28 13:02:21;;;;;;;29.58;6.05;;;;;;;;;;6134661;23;20028;-85
2023/12/28 13:04:47;;;;;;;21.98;4.78;;;;;;;;;;6134979;23;20021;-85
2023/12/28 16:04:05;;;;;;;22.70;4.43;;;;;;;;;;6157294;23;20072;-83
2023/12/28 16:06:31;;;;;;;22.98;4.38;;;;;;;;;;6129382;23;20423;-83
2023/12/28 16:08:57;;;;;;;20.25;4.22;;;;;;;;;;6155638;23;20059;-83
2023/12/28 16:11:23;;;;;;;24.55;5.00;;;;;;;;;;6130091;23;20014;-83
2023/12/28 16:13:52;;;;;;;13.88;4.82;;;;;;;;;;6130131;23;20045;-85
2023/12/28 16:16:20;;;;;;;19.58;4.63;;;;;;;;;;6128760;23;20028;-85
2023/12/28 16:18:47;;;;;;;18.55;5.40;;;;;;;;;;6154895;23;20044;-84
2023/12/28 16:21:16;;;;;;;20.50;5.68;;;;;;;;;;6129126;23;20048;-84
2023/12/28 16:23:45;;;;;;;21.42;4.78;;;;;;;;;;6129688;23;20043;-84
2023/12/28 16:26:25;;;;;;;20.20;5.55;;;;;;;;;;6129592;23;20129;-84
2023/12/28 16:28:55;;;;;;;18.40;5.25;;;;;;;;;;6129401;23;20021;-84
2023/12/28 16:31:21;;;;;;;16.00;4.68;;;;;;;;;;6129148;23;20294;-84
2023/12/28 16:33:47;;;;;;;18.05;5.10;;;;;;;;;;6104696;23;20021;-84
2023/12/28 16:36:13;;;;;;;16.63;4.68;;;;;;;;;;6128968;23;20088;-84
2023/12/28 16:38:44;;;;;;;18.20;4.28;;;;;;;;;;6129254;23;20021;-84
2023/12/28 16:41:11;;;;;;;15.88;4.28;;;;;;;;;;6129072;23;20072;-84
2023/12/28 16:43:38;;;;;;;15.23;4.68;;;;;;;;;;6129603;23;20053;-84
2023/12/28 16:46:09;;;;;;;20.70;5.20;;;;;;;;;;6155178;23;20014;-85
2023/12/28 16:48:46;;;;;;;15.45;4.70;;;;;;;;;;6128664;23;20447;-84
2023/12/28 16:51:15;;;;;;;21.63;5.30;;;;;;;;;;6129154;23;20052;-85
2023/12/28 16:53:41;;;;;;;19.05;4.75;;;;;;;;;;6129367;23;20056;-84
2023/12/28 16:56:07;;;;;;;25.83;4.93;;;;;;;;;;6130596;23;20160;-84
2023/12/28 16:58:39;;;;;;;17.52;5.40;;;;;;;;;;6129868;23;20451;-85
2023/12/28 17:01:11;;;;;;;16.08;4.50;;;;;;;;;;6129242;23;20450;-85
2023/12/28 17:03:37;;;;;;;25.92;5.85;;;;;;;;;;6128763;23;20107;-85
2023/12/28 17:06:03;;;;;;;19.83;5.07;;;;;;;;;;6128911;23;20025;-84
2023/12/28 17:08:35;;;;;;;16.88;4.13;;;;;;;;;;6129399;23;20028;-85
2023/12/28 17:11:04;;;;;;;26.83;5.50;;;;;;;;;;6129913;23;20029;-86
2023/12/28 17:13:34;;;;;;;14.70;4.28;;;;;;;;;;6129271;23;20025;-84
2023/12/28 17:16:00;;;;;;;22.08;6.68;;;;;;;;;;6128936;23;20022;-83
2023/12/28 17:18:27;;;;;;;21.10;7.05;;;;;;;;;;6129282;23;20024;-85
2023/12/28 17:20:55;;;;;;;18.23;6.15;;;;;;;;;;6128559;23;20059;-84
2023/12/28 17:23:30;;;;;;;17.60;5.25;;;;;;;;;;6129507;23;20018;-84
2023/12/28 17:26:06;;;;;;;19.57;5.23;;;;;;;;;;6155591;23;20013;-84
2023/12/28 17:28:53;;;;;;;23.50;6.25;;;;;;;;;;6129568;23;20439;-85
2023/12/28 17:31:22;;;;;;;24.90;5.88;;;;;;;;;;6130294;23;20017;-84
2023/12/28 17:33:48;;;;;;;20.33;4.80;;;;;;;;;;6128929;23;20017;-84
2023/12/28 17:36:20;;;;;;;17.77;4.70;;;;;;;;;;6104926;23;20025;-87